Weather History for Marfa, TX

Change the Weather History Date:

Monday, November 17, 2014

  Actual Average Record
Temperature  
Mean Temperature 32 °F -  
Max Temperature 44 °F 63 °F 75 °F (1998)
Min Temperature 19 °F 33 °F 19 °F (2014)
Degree Days  
Heating Degree Days 34    
Moisture  
Dew Point 10 °F    
Average Humidity 45    
Maximum Humidity 80    
Minimum Humidity 19    
Precipitation  
Precipitation 0.00 in - - ()
Sea Level Pressure  
Sea Level Pressure 30.30 in    
Wind  
Wind Speed 9 mph (East)    
Max Wind Speed 16 mph    
Max Gust Speed 17 mph    
Visibility 10 miles    
Events      
Averages and records for this station are not official NWS values.
T = Trace of Precipitation, MM = Missing Value Source: NWS Daily Summary

Daily Weather History Graph

Daily Weather History Graph

Search for Another Location

Airport:

Trip Planner

Search our weather history database for the weather conditions in past years. The results will help you decide how hot, cold, wet, or windy it might be!

Date:

Astronomy

Nov. 17, 2014 Rise Set
Actual Time 7:23 AM CST 5:58 PM CST
Civil Twilight 6:57 AM CST 6:23 PM CST
Nautical Twilight 6:28 AM CST 6:52 PM CST
Astronomical Twilight 6:00 AM CST 7:21 PM CST
Moon 2:47 AM CST (11/17) 3:04 PM CST (11/17)
Length of Visible Light 11h 25m
Length of Day
10h 34m
Waning Crescent, 22% of the Moon is Illuminated
Nov 17
Waning Crescent
Nov 22
New
Nov 29
First Quarter
Dec 6
Full
Dec 14
Last Quarter

Hourly Weather History & Observations

Time (CST) Temp. Windchill Dew Point Humidity Pressure Visibility Wind Dir Wind Speed Gust Speed Precip Events Conditions
12:15 AM 26.6 °F 16.2 °F 17.6 °F 69% 30.24 in 10.0 mi NE 11.5 mph - N/A   Partly Cloudy
12:35 AM 24.8 °F 12.4 °F 15.8 °F 69% 30.24 in 10.0 mi NNE 15.0 mph - N/A   Partly Cloudy
12:55 AM 24.8 °F 13.4 °F 15.8 °F 69% 30.25 in 10.0 mi NNE 12.7 mph - N/A   Clear
1:15 AM 24.8 °F 14.6 °F 15.8 °F 69% 30.26 in 10.0 mi NNE 10.4 mph - N/A   Clear
1:35 AM 24.8 °F 13.4 °F 15.8 °F 69% 30.26 in 10.0 mi NNE 12.7 mph - N/A   Clear
1:55 AM 24.8 °F 11.9 °F 15.8 °F 69% 30.25 in 10.0 mi NNE 16.1 mph - N/A   Partly Cloudy
2:15 AM 24.8 °F 14.0 °F 15.8 °F 69% 30.26 in 10.0 mi NNE 11.5 mph - N/A   Clear
2:35 AM 24.8 °F 15.3 °F 15.8 °F 69% 30.27 in 10.0 mi NNE 9.2 mph - N/A   Clear
2:55 AM 24.8 °F 14.0 °F 15.8 °F 69% 30.27 in 10.0 mi North 11.5 mph - N/A   Partly Cloudy
3:15 AM 24.8 °F 15.3 °F 15.8 °F 69% 30.27 in 10.0 mi North 9.2 mph - N/A   Partly Cloudy
3:35 AM 26.6 °F 18.2 °F 15.8 °F 64% 30.28 in 10.0 mi NNE 8.1 mph - N/A   Scattered Clouds
3:55 AM 24.8 °F 16.1 °F 15.8 °F 69% 30.28 in 10.0 mi NNE 8.1 mph - N/A   Partly Cloudy
4:15 AM 26.6 °F 14.3 °F 15.8 °F 64% 30.28 in 10.0 mi NNE 16.1 mph - N/A   Scattered Clouds
4:35 AM 24.8 °F 14.0 °F 15.8 °F 69% 30.29 in 10.0 mi NNE 11.5 mph - N/A   Partly Cloudy
4:55 AM 24.8 °F 14.6 °F 15.8 °F 69% 30.30 in 10.0 mi NNE 10.4 mph - N/A   Clear
5:15 AM 24.8 °F 14.6 °F 15.8 °F 69% 30.30 in 10.0 mi North 10.4 mph - N/A   Clear
5:35 AM 24.8 °F 14.6 °F 15.8 °F 69% 30.30 in 10.0 mi North 10.4 mph - N/A   Clear
5:55 AM 21.2 °F 12.6 °F 15.8 °F 80% 30.31 in 10.0 mi NE 6.9 mph - N/A   Clear
6:15 AM 24.8 °F 16.1 °F 15.8 °F 69% 30.32 in 10.0 mi NNE 8.1 mph - N/A   Clear
6:35 AM 21.2 °F 13.6 °F 15.8 °F 80% 30.33 in 10.0 mi East 5.8 mph - N/A   Clear
6:55 AM 21.2 °F 13.6 °F 12.2 °F 68% 30.35 in 10.0 mi ENE 5.8 mph - N/A   Clear
7:15 AM 19.4 °F 10.4 °F 14.0 °F 80% 30.35 in 10.0 mi NE 6.9 mph - N/A   Clear
7:35 AM 19.4 °F 11.5 °F 14.0 °F 80% 30.35 in 10.0 mi NNE 5.8 mph - N/A   Clear
7:55 AM 21.2 °F 14.9 °F 15.8 °F 80% 30.36 in 10.0 mi NNE 4.6 mph - N/A   Clear
8:15 AM 23.0 °F 17.0 °F 15.8 °F 74% 30.36 in 10.0 mi NNE 4.6 mph - N/A   Clear
8:35 AM 26.6 °F 19.1 °F 12.2 °F 55% 30.37 in 10.0 mi NNE 6.9 mph - N/A   Clear
8:55 AM 26.6 °F 21.2 °F 10.4 °F 51% 30.37 in 10.0 mi NE 4.6 mph - N/A   Clear
9:15 AM 28.4 °F 22.2 °F 8.6 °F 43% 30.37 in 10.0 mi ENE 5.8 mph - N/A   Clear
9:35 AM 30.2 °F - 6.8 °F 37% 30.38 in 10.0 mi Calm Calm - N/A   Clear
9:55 AM 30.2 °F 23.4 °F 3.2 °F 32% 30.38 in 10.0 mi ENE 6.9 mph - N/A   Clear
10:15 AM 33.8 °F 27.7 °F 3.2 °F 28% 30.38 in 10.0 mi ENE 6.9 mph - N/A   Clear
10:35 AM 35.6 °F 27.5 °F 1.4 °F 24% 30.38 in 10.0 mi East 11.5 mph - N/A   Clear
10:55 AM 35.6 °F 31.7 °F 1.4 °F 24% 30.38 in 10.0 mi ENE 4.6 mph - N/A   Clear
11:15 AM 37.4 °F 32.8 °F 3.2 °F 24% 30.38 in 10.0 mi East 5.8 mph - N/A   Clear
11:35 AM 37.4 °F 32.8 °F 1.4 °F 22% 30.37 in 10.0 mi East 5.8 mph - N/A   Clear
11:55 AM 37.4 °F 33.8 °F -0.4 °F 20% 30.36 in 10.0 mi East 4.6 mph - N/A   Clear
12:15 PM 39.2 °F 32.0 °F 1.4 °F 21% 30.34 in 10.0 mi ESE 11.5 mph 17.3 mph N/A   Clear
12:35 PM 41.0 °F 35.8 °F 1.4 °F 19% 30.34 in 10.0 mi East 8.1 mph - N/A   Clear
12:55 PM 39.2 °F 35.0 °F -0.4 °F 19% 30.33 in 10.0 mi East 5.8 mph - N/A   Clear
1:15 PM 41.0 °F 37.1 °F 3.2 °F 21% 30.31 in 10.0 mi ENE 5.8 mph - N/A   Clear
1:35 PM 42.8 °F 41.1 °F 3.2 °F 19% 30.30 in 10.0 mi East 3.5 mph - N/A   Clear
1:55 PM 42.8 °F 38.6 °F 5.0 °F 21% 30.28 in 10.0 mi SE 6.9 mph - N/A   Clear
2:15 PM 42.8 °F 37.5 °F 6.8 °F 23% 30.28 in 10.0 mi SE 9.2 mph - N/A   Clear
2:35 PM 44.6 °F 39.7 °F 6.8 °F 21% 30.27 in 10.0 mi SSW 9.2 mph - N/A   Clear
2:55 PM 44.6 °F 40.7 °F 6.8 °F 21% 30.26 in 7.0 mi South 6.9 mph - N/A   Clear
3:15 PM 44.6 °F 41.4 °F 6.8 °F 21% 30.26 in 10.0 mi South 5.8 mph - N/A   Clear
3:35 PM 44.6 °F 40.7 °F 6.8 °F 21% 30.25 in 10.0 mi SSE 6.9 mph - N/A   Clear
3:55 PM 44.6 °F 40.7 °F 6.8 °F 21% 30.25 in 10.0 mi South 6.9 mph - N/A   Clear
4:15 PM 44.6 °F 40.7 °F 5.0 °F 20% 30.25 in 10.0 mi SSE 6.9 mph - N/A   Clear
4:35 PM 44.6 °F 39.7 °F 6.8 °F 21% 30.25 in 10.0 mi South 9.2 mph - N/A   Clear
4:55 PM 44.6 °F 40.2 °F 6.8 °F 21% 30.25 in 10.0 mi South 8.1 mph - N/A   Clear
5:15 PM 42.8 °F 38.6 °F 6.8 °F 23% 30.25 in 10.0 mi South 6.9 mph - N/A   Clear
5:35 PM 42.8 °F 38.0 °F 6.8 °F 23% 30.25 in 10.0 mi South 8.1 mph - N/A   Clear
5:55 PM 41.0 °F 35.2 °F 6.8 °F 24% 30.25 in 10.0 mi South 9.2 mph - N/A   Clear
6:15 PM 39.2 °F 33.6 °F 8.6 °F 28% 30.25 in 10.0 mi South 8.1 mph - N/A   Clear
6:35 PM 37.4 °F 32.1 °F 8.6 °F 30% 30.25 in 10.0 mi South 6.9 mph - N/A   Clear
6:55 PM 37.4 °F 32.1 °F 8.6 °F 30% 30.26 in 10.0 mi SSE 6.9 mph - N/A   Clear
7:15 PM 37.4 °F 32.8 °F 10.4 °F 33% 30.26 in 10.0 mi SE 5.8 mph - N/A   Clear
7:35 PM 35.6 °F 30.7 °F 10.4 °F 35% 30.27 in 10.0 mi SE 5.8 mph - N/A   Clear
7:55 PM 35.6 °F 31.7 °F 10.4 °F 35% 30.27 in 10.0 mi SSE 4.6 mph - N/A   Clear
8:15 PM 33.8 °F 28.6 °F 10.4 °F 38% 30.27 in 10.0 mi SE 5.8 mph - N/A   Clear
8:35 PM 33.8 °F 30.8 °F 12.2 °F 41% 30.27 in 10.0 mi SE 3.5 mph - N/A   Clear
8:55 PM 33.8 °F 29.6 °F 12.2 °F 41% 30.28 in 10.0 mi SE 4.6 mph - N/A   Clear
9:15 PM 33.8 °F 29.6 °F 10.4 °F 38% 30.28 in 10.0 mi ESE 4.6 mph - N/A   Clear
9:35 PM 33.8 °F 30.8 °F 10.4 °F 38% 30.28 in 10.0 mi South 3.5 mph - N/A   Clear
9:55 PM 33.8 °F 30.8 °F 8.6 °F 35% 30.28 in 10.0 mi SSE 3.5 mph - N/A   Clear
10:15 PM 33.8 °F - 10.4 °F 38% 30.28 in 10.0 mi Calm Calm - N/A   Clear
10:35 PM 33.8 °F - 10.4 °F 38% 30.28 in 10.0 mi Calm Calm - N/A   Partly Cloudy
10:55 PM 33.8 °F 29.6 °F 10.4 °F 38% 30.29 in 10.0 mi South 4.6 mph - N/A   Scattered Clouds
11:15 PM 33.8 °F 30.8 °F 12.2 °F 41% 30.29 in 10.0 mi South 3.5 mph - N/A   Partly Cloudy
11:35 PM 33.8 °F 29.6 °F 12.2 °F 41% 30.30 in 10.0 mi West 4.6 mph - N/A   Clear
11:55 PM 32.0 °F 26.4 °F 15.8 °F 51% 30.29 in 10.0 mi West 5.8 mph - N/A   Clear